Rechercher aéroport 
image banner adimage banner ad
image banner ad

SIME - Comandante Carlos Inácio Agnes Airport

Situé à Davinópolis, Brazil

ICAO - SIME, IATA -

Données fournies par Airmate  

Information générale

Coordonnées: S5°35'1" W47°25'41"
Élévation : 442 feet MSL.
Variation magnétique : -21° East
Voir autres Aéroports à Maranhão

Données opérationnelles

Accessible au public
Heure actuelle UTC:
Heure actuelle locale:
METAR: SBIZ 211400Z 13004KT 9999 BKN015 BKN070 26/23 Q1013
TAF: TAF SBIZ 210900Z 2112/2124 07003KT 9999 SCT015 TX29/2116Z TN25/2124Z BECMG 2113/2115 02005KT BKN018 BECMG 2116/2118 08007KT SCT025 FEW030TCU TEMPO 2118/2121 4000 TSRA BKN015 FEW025CB BECMG 2122/2124 05003KT FEW010 RMK PFV
Voir NOTAMs / SUP AIP / TFR affectant cet aéroport [VIEW]
Fréquences de communication: [VIEW]

Pistes:

Identifiant RWYQFULongueur (ft)Largeur (ft)SurfaceLDA (ft)
09344465GRASS
27344465GRASS

Coordonnées de l'aéroport

Adresse: Davinópolis Brazil

Vue satellite de SIME